createdAt,value
2023-05-06T00:00:07.680Z,101308.25
2023-05-06T00:05:09.407Z,101304.44
2023-05-06T00:10:11.204Z,101303.13
2023-05-06T00:15:12.782Z,101308.31
2023-05-06T00:20:14.821Z,101306.63
2023-05-06T00:25:16.339Z,101309.16
2023-05-06T00:30:18.011Z,101316.75
2023-05-06T00:35:19.582Z,101311.78
2023-05-06T00:40:21.075Z,101312.13
2023-05-06T00:45:22.563Z,101319.75
2023-05-06T00:50:24.178Z,101311.63
2023-05-06T00:55:26.148Z,101309.28
2023-05-06T01:00:27.635Z,101312.88
2023-05-06T01:05:31.256Z,101307.69
2023-05-06T01:10:54.308Z,101307.47
2023-05-06T01:15:57.108Z,101310.56
2023-05-06T01:20:59.105Z,101308.03
2023-05-06T01:26:00.639Z,101303.69
2023-05-06T01:31:12.275Z,101297.41
2023-05-06T01:36:18.848Z,101288.97
2023-05-06T01:41:20.600Z,101296.88
2023-05-06T01:46:22.297Z,101307.88
2023-05-06T01:51:23.791Z,101299.94
2023-05-06T01:56:27.041Z,101294.38
2023-05-06T02:01:28.553Z,101306.28
2023-05-06T02:06:30.054Z,101306.38
2023-05-06T02:11:31.517Z,101296.44
2023-05-06T02:16:33.085Z,101302.31
2023-05-06T02:21:34.671Z,101304.16
2023-05-06T02:26:36.133Z,101304.59
2023-05-06T02:31:37.721Z,101302.03
2023-05-06T02:36:39.241Z,101306.72
2023-05-06T02:41:40.687Z,101305.56
2023-05-06T02:46:43.565Z,101306.38
2023-05-06T02:51:44.890Z,101293.84
2023-05-06T02:56:46.399Z,101295.59
2023-05-06T03:01:47.893Z,101296.50
2023-05-06T03:06:49.365Z,101301.88
2023-05-06T03:11:50.844Z,101308.25
2023-05-06T03:16:52.364Z,101308.69
2023-05-06T03:21:53.957Z,101296.22
2023-05-06T03:26:55.458Z,101293.00
2023-05-06T03:31:57.146Z,101291.19
2023-05-06T03:36:58.808Z,101289.53
2023-05-06T03:42:00.275Z,101298.66
2023-05-06T03:47:01.725Z,101295.31
2023-05-06T03:52:03.188Z,101298.91
2023-05-06T03:57:05.265Z,101297.06
2023-05-06T04:02:06.877Z,101285.31
2023-05-06T04:07:08.997Z,101280.81
2023-05-06T04:12:10.654Z,101310.66
2023-05-06T04:17:12.178Z,101316.97
2023-05-06T04:22:13.663Z,101318.22
2023-05-06T04:27:15.206Z,101322.06
2023-05-06T04:32:17.992Z,101327.13
2023-05-06T04:37:20.034Z,101332.38
2023-05-06T04:42:21.610Z,101337.72
2023-05-06T04:47:23.155Z,101328.63
2023-05-06T04:52:24.714Z,101337.91
2023-05-06T04:57:26.262Z,101328.97
2023-05-06T05:02:27.796Z,101327.16
2023-05-06T05:07:29.332Z,101328.31
2023-05-06T05:12:31.192Z,101340.00
2023-05-06T05:17:32.640Z,101331.25
2023-05-06T05:22:34.100Z,101342.28
2023-05-06T05:27:36.340Z,101347.31
2023-05-06T05:32:37.861Z,101341.38
2023-05-06T05:37:39.354Z,101341.06
2023-05-06T05:42:40.796Z,101342.69
2023-05-06T05:47:42.310Z,101360.72
2023-05-06T05:52:43.780Z,101347.56
2023-05-06T05:57:51.768Z,101357.09
2023-05-06T06:02:53.384Z,101354.47
2023-05-06T06:07:54.963Z,101357.19
2023-05-06T06:12:56.515Z,101364.22
2023-05-06T06:17:58.133Z,101370.94
2023-05-06T06:22:59.644Z,101374.66
2023-05-06T06:28:01.124Z,101390.34
2023-05-06T06:33:02.638Z,101400.28
2023-05-06T06:38:04.120Z,101395.78
2023-05-06T06:43:05.613Z,101389.63
2023-05-06T06:48:07.133Z,101409.91
2023-05-06T06:53:09.815Z,101408.47
2023-05-06T06:58:11.402Z,101403.06
2023-05-06T07:03:15.797Z,101414.47
2023-05-06T07:08:17.370Z,101422.69
2023-05-06T07:13:20.676Z,101431.25
2023-05-06T07:18:22.303Z,101430.72
2023-05-06T07:23:23.769Z,101426.59
2023-05-06T07:28:25.718Z,101426.06
2023-05-06T07:33:27.178Z,101430.19
2023-05-06T07:38:28.621Z,101437.94
2023-05-06T07:43:30.098Z,101436.22
2023-05-06T07:48:33.073Z,101433.09
2023-05-06T07:53:34.835Z,101433.03
2023-05-06T07:58:36.316Z,101438.88
2023-05-06T08:03:38.037Z,101426.19
2023-05-06T08:08:39.634Z,101431.81
2023-05-06T08:13:41.140Z,101444.59
2023-05-06T08:18:42.591Z,101455.00
2023-05-06T08:23:44.057Z,101470.50
2023-05-06T08:28:45.619Z,101470.97
2023-05-06T08:33:47.084Z,101461.97
2023-05-06T08:38:50.718Z,101477.69
2023-05-06T08:43:52.341Z,101483.22
2023-05-06T08:48:53.905Z,101485.16
2023-05-06T08:53:55.935Z,101501.72
2023-05-06T08:58:58.441Z,101496.88
2023-05-06T09:03:59.917Z,101494.09
2023-05-06T09:09:01.386Z,101500.44
2023-05-06T09:14:13.397Z,101503.84
2023-05-06T09:19:15.544Z,101495.41
2023-05-06T09:24:17.110Z,101491.50
2023-05-06T09:29:18.578Z,101499.75
2023-05-06T09:34:21.119Z,101502.16
2023-05-06T09:39:26.601Z,101510.81
2023-05-06T09:44:28.124Z,101506.47
2023-05-06T09:49:29.591Z,101507.53
2023-05-06T09:54:31.072Z,101506.00
2023-05-06T09:59:32.540Z,101492.06
2023-05-06T10:04:34.472Z,101494.97
2023-05-06T10:09:36.103Z,101486.38
2023-05-06T10:14:37.801Z,101482.84
2023-05-06T10:19:40.216Z,101495.03
2023-05-06T10:24:47.429Z,101483.25
2023-05-06T10:29:48.919Z,101475.38
2023-05-06T10:34:54.782Z,101482.31
2023-05-06T10:39:56.327Z,101493.59
2023-05-06T10:45:03.676Z,101486.88
2023-05-06T10:50:31.618Z,101494.47
2023-05-06T10:55:34.534Z,101486.91
2023-05-06T11:00:36.185Z,101485.88
2023-05-06T11:05:48.851Z,101493.34
2023-05-06T11:10:50.956Z,101490.91
2023-05-06T11:15:52.501Z,101491.16
2023-05-06T11:21:03.045Z,101491.75
2023-05-06T11:26:06.936Z,101495.63
2023-05-06T11:31:08.475Z,101497.25
2023-05-06T11:36:13.869Z,101490.31
2023-05-06T11:41:15.692Z,101497.25
2023-05-06T11:46:21.192Z,101502.09
2023-05-06T11:51:23.143Z,101512.59
2023-05-06T11:56:25.009Z,101514.53
2023-05-06T12:01:26.486Z,101511.16
2023-05-06T12:06:37.035Z,101510.72
2023-05-06T12:11:38.994Z,101513.75
2023-05-06T12:16:41.269Z,101524.75
2023-05-06T12:21:43.110Z,101528.00
2023-05-06T12:26:46.037Z,101540.28
2023-05-06T12:31:47.691Z,101537.09
2023-05-06T12:36:49.197Z,101538.19
2023-05-06T12:41:50.768Z,101543.97
2023-05-06T12:46:55.002Z,101542.66
2023-05-06T12:52:09.528Z,101547.00
2023-05-06T12:57:11.105Z,101556.00
2023-05-06T13:02:12.717Z,101544.41
2023-05-06T13:07:14.273Z,101549.66
2023-05-06T13:12:15.838Z,101536.34
2023-05-06T13:17:17.621Z,101555.97
2023-05-06T13:22:19.916Z,101544.88
2023-05-06T13:27:21.787Z,101545.81
2023-05-06T13:32:23.382Z,101540.31
2023-05-06T13:37:24.840Z,101538.03
2023-05-06T13:42:26.303Z,101541.44
2023-05-06T13:47:27.810Z,101545.63
2023-05-06T13:52:29.299Z,101546.13
2023-05-06T13:57:30.787Z,101553.25
2023-05-06T14:02:32.293Z,101540.03
2023-05-06T14:07:33.879Z,101539.19
2023-05-06T14:12:35.385Z,101531.25
2023-05-06T14:17:37.121Z,101525.47
2023-05-06T14:22:39.974Z,101521.88
2023-05-06T14:27:41.428Z,101516.09
2023-05-06T14:32:43.570Z,101510.78
2023-05-06T14:37:45.216Z,101507.84
2023-05-06T14:42:46.682Z,101517.56
2023-05-06T14:47:48.270Z,101516.91
2023-05-06T14:52:49.792Z,101521.41
2023-05-06T14:57:52.021Z,101526.22
2023-05-06T15:02:53.662Z,101517.81
2023-05-06T15:07:55.259Z,101512.34
2023-05-06T15:12:56.766Z,101519.81
2023-05-06T15:17:58.339Z,101523.44
2023-05-06T15:22:59.886Z,101523.34
2023-05-06T15:28:01.390Z,101518.44
2023-05-06T15:33:03.040Z,101518.75
2023-05-06T15:38:04.611Z,101513.09
2023-05-06T15:43:06.141Z,101526.31
2023-05-06T15:48:07.711Z,101522.94
2023-05-06T15:53:09.581Z,101524.91
2023-05-06T15:58:11.060Z,101528.94
2023-05-06T16:03:12.921Z,101535.63
2023-05-06T16:08:14.562Z,101541.25
2023-05-06T16:13:16.106Z,101548.69
2023-05-06T16:18:17.631Z,101549.69
2023-05-06T16:23:19.491Z,101548.38
2023-05-06T16:28:20.977Z,101543.75
2023-05-06T16:33:22.427Z,101540.72
2023-05-06T16:38:24.667Z,101537.06
2023-05-06T16:43:26.154Z,101520.84
2023-05-06T16:48:27.760Z,101533.69
2023-05-06T16:53:29.480Z,101526.06
2023-05-06T16:58:31.033Z,101515.41
2023-05-06T17:03:32.623Z,101513.59
2023-05-06T17:08:36.380Z,101522.69
2023-05-06T17:13:38.455Z,101520.06
2023-05-06T17:18:39.940Z,101514.44
2023-05-06T17:23:41.466Z,101517.94
2023-05-06T17:28:42.960Z,101509.63
2023-05-06T17:33:44.735Z,101520.31
2023-05-06T17:38:49.030Z,101521.47
2023-05-06T17:43:50.963Z,101524.25
2023-05-06T17:48:53.019Z,101526.97
2023-05-06T17:53:54.481Z,101529.84
2023-05-06T17:58:58.055Z,101537.09
2023-05-06T18:03:59.619Z,101546.97
2023-05-06T18:09:01.176Z,101539.41
2023-05-06T18:14:02.657Z,101540.00
2023-05-06T18:19:05.142Z,101539.94
2023-05-06T18:24:15.858Z,101543.66
2023-05-06T18:29:18.190Z,101544.75
2023-05-06T18:34:19.668Z,101554.47
2023-05-06T18:39:22.830Z,101549.59
2023-05-06T18:44:24.338Z,101547.00
2023-05-06T18:49:27.419Z,101564.34
2023-05-06T18:54:28.878Z,101555.16
2023-05-06T18:59:30.576Z,101545.22
2023-05-06T19:04:32.144Z,101560.28
2023-05-06T19:09:36.822Z,101562.50
2023-05-06T19:14:38.298Z,101552.00
2023-05-06T19:19:40.621Z,101564.19
2023-05-06T19:24:42.144Z,101576.88
2023-05-06T19:29:43.613Z,101579.47
2023-05-06T19:34:45.073Z,101585.13
2023-05-06T19:39:47.514Z,101583.38
2023-05-06T19:44:49.631Z,101585.81
2023-05-06T19:49:53.735Z,101582.91
2023-05-06T19:54:55.218Z,101579.53
2023-05-06T19:59:56.771Z,101585.16
2023-05-06T20:04:58.283Z,101586.94
2023-05-06T20:09:59.829Z,101593.19
2023-05-06T20:15:03.527Z,101580.66
2023-05-06T20:20:09.630Z,101587.28
2023-05-06T20:25:13.016Z,101591.25
2023-05-06T20:30:14.842Z,101583.09
2023-05-06T20:35:16.847Z,101579.59
2023-05-06T20:40:18.354Z,101569.06
2023-05-06T20:45:19.925Z,101584.28
2023-05-06T20:50:21.386Z,101584.88
2023-05-06T20:55:23.650Z,101593.22
2023-05-06T21:00:25.211Z,101595.06
2023-05-06T21:05:26.755Z,101607.00
2023-05-06T21:10:28.255Z,101599.13
2023-05-06T21:15:29.784Z,101591.34
2023-05-06T21:20:31.953Z,101578.03
2023-05-06T21:25:33.446Z,101581.63
2023-05-06T21:30:35.025Z,101581.81
2023-05-06T21:35:36.766Z,101578.72
2023-05-06T21:40:38.397Z,101585.13
2023-05-06T21:45:39.944Z,101595.16
2023-05-06T21:50:41.438Z,101603.25
2023-05-06T21:55:42.907Z,101599.00
2023-05-06T22:00:44.410Z,101597.91
2023-05-06T22:05:45.886Z,101589.03
2023-05-06T22:10:47.366Z,101592.16
2023-05-06T22:15:48.835Z,101602.88
2023-05-06T22:20:52.408Z,101588.97
2023-05-06T22:25:53.926Z,101597.56
2023-05-06T22:30:55.432Z,101600.00
2023-05-06T22:35:56.958Z,101612.28
2023-05-06T22:40:58.418Z,101609.81
2023-05-06T22:46:00.035Z,101612.81
2023-05-06T22:51:02.826Z,101608.44
2023-05-06T22:56:04.193Z,101604.88
2023-05-06T23:01:07.240Z,101610.63
2023-05-06T23:06:09.928Z,101607.41
2023-05-06T23:11:11.387Z,101617.75
2023-05-06T23:16:14.479Z,101613.13
2023-05-06T23:21:16.159Z,101617.50
2023-05-06T23:26:17.625Z,101619.19
2023-05-06T23:31:19.212Z,101625.16
2023-05-06T23:36:21.171Z,101612.88
2023-05-06T23:41:23.494Z,101614.69
2023-05-06T23:46:24.997Z,101615.94
2023-05-06T23:51:26.542Z,101607.78
2023-05-06T23:56:28.458Z,101610.75
